Time;durP1;ratioP1;P1;durP2;ratioP2;P2;SDS_P1;SDS_P2;PMS_P1;PMS_P2;Temp;Humidity;BMP_temperature;BMP_pressure;BME280_temperature;BME280_humidity;BME280_pressure;Samples;Min_cycle;Max_cycle;Signal;HPM_P1;HPM_P2
2022/10/02 00:02:38;;;;;;;18.55;9.75;;;;;;;19.91;100.00;30762.86;1768468;80;21084;-61
2022/10/02 00:05:29;;;;;;;25.05;10.90;;;;;;;19.93;100.00;32470.06;1787101;78;21326;-61
2022/10/02 00:08:12;;;;;;;22.82;10.25;;;;;;;19.92;100.00;34347.70;1801275;79;21048;-61
2022/10/02 00:11:12;;;;;;;22.30;10.43;;;;;;;19.93;100.00;37252.41;1789041;79;21057;-62
2022/10/02 00:13:46;;;;;;;22.25;9.23;;;;;;;19.93;100.00;41528.14;1803432;79;21205;-62
2022/10/02 00:16:30;;;;;;;20.70;10.20;;;;;;;19.92;100.00;45294.87;1802800;79;21476;-61
2022/10/02 00:18:59;;;;;;;18.65;9.30;;;;;;;19.94;100.00;50268.84;1800010;79;21550;-61
2022/10/02 00:21:50;;;;;;;18.23;9.25;;;;;;;19.93;100.00;53186.13;1802030;79;21055;-61
2022/10/02 00:24:20;;;;;;;20.95;9.40;;;;;;;19.94;100.00;57483.16;1788120;79;20989;-61
2022/10/02 00:27:01;;;;;;;18.85;9.10;;;;;;;19.94;100.00;62573.00;1789876;79;21214;-61
2022/10/02 00:29:51;;;;;;;17.20;9.33;;;;;;;19.95;100.00;64369.02;1793191;79;21017;-61
2022/10/02 00:32:50;;;;;;;16.67;8.03;;;;;;;19.97;100.00;71270.63;1789892;79;21013;-61
2022/10/02 00:36:00;;;;;;;22.02;8.58;;;;;;;19.99;100.00;79743.42;1790446;79;21052;-61
2022/10/02 00:38:56;;;;;;;19.00;8.53;;;;;;;20.01;100.00;91884.99;1803087;79;21015;-62
2022/10/02 00:41:39;;;;;;;20.75;8.68;;;;;;;20.01;100.00;102323.06;1793731;79;21859;-61
2022/10/02 00:44:24;;;;;;;18.20;9.00;;;;;;;20.02;100.00;106683.34;1798686;79;21438;-62
2022/10/02 00:47:18;;;;;;;18.90;8.38;;;;;;;20.04;100.00;112973.08;1798944;79;21087;-61
2022/10/02 00:50:28;;;;;;;18.00;7.95;;;;;;;20.07;100.00;119975.95;1797832;79;21045;-60
2022/10/02 00:53:07;;;;;;;25.20;9.33;;;;;;;20.09;100.00;125938.52;1792651;79;21206;-61
2022/10/02 00:56:13;;;;;;;20.97;8.58;;;;;;;20.09;100.00;133315.22;1804853;79;21326;-61
2022/10/02 00:58:54;;;;;;;19.45;8.85;;;;;;;20.11;100.00;137188.34;1801320;79;21044;-62
2022/10/02 01:01:24;;;;;;;24.80;9.05;;;;;;;20.10;100.00;140707.47;1790693;79;20989;-62
2022/10/02 01:03:53;;;;;;;21.52;8.98;;;;;;;20.09;100.00;141587.16;1775292;79;21025;-62
2022/10/02 01:06:23;;;;;;;17.02;8.60;;;;;;;20.09;100.00;143877.34;1785180;79;21482;-62
2022/10/02 01:08:50;;;;;;;16.93;8.83;;;;;;;20.08;100.00;142465.84;1790798;79;21202;-61
2022/10/02 01:11:19;;;;;;;23.47;9.78;;;;;;;20.08;100.00;140702.66;1792881;79;20969;-61
2022/10/02 01:13:45;;;;;;;15.60;8.70;;;;;;;20.04;100.00;136998.28;1781648;79;21018;-62
2022/10/02 01:16:13;;;;;;;23.30;9.43;;;;;;;20.00;100.00;129431.00;1775903;79;21098;-62
2022/10/02 01:18:41;;;;;;;20.37;8.88;;;;;;;19.98;100.00;121534.70;1800101;77;21942;-62
2022/10/02 01:21:19;;;;;;;21.05;9.08;;;;;;;19.96;100.00;115404.81;1777100;79;21221;-62
2022/10/02 01:24:00;;;;;;;19.62;9.25;;;;;;;19.96;100.00;110511.92;1784090;79;21017;-62
2022/10/02 01:26:26;;;;;;;21.60;8.75;;;;;;;19.94;100.00;105272.61;1799373;79;21079;-61
2022/10/02 01:28:53;;;;;;;30.75;10.45;;;;;;;19.92;100.00;100391.46;1796057;79;21103;-61
2022/10/02 01:31:21;;;;;;;19.25;9.28;;;;;;;19.94;100.00;96218.72;1785457;79;21025;-61
2022/10/02 01:33:48;;;;;;;19.98;9.38;;;;;;;19.94;100.00;92047.53;1785880;80;21790;-61
2022/10/02 01:36:15;;;;;;;15.38;8.78;;;;;;;19.94;100.00;87707.15;1784166;80;20997;-61
2022/10/02 01:38:42;;;;;;;29.32;9.63;;;;;;;19.93;100.00;84585.25;1786611;79;21020;-62
2022/10/02 01:41:10;;;;;;;21.68;9.35;;;;;;;19.94;100.00;80775.78;1778951;79;21061;-62
2022/10/02 01:43:47;;;;;;;25.82;10.03;;;;;;;19.96;100.00;75242.75;1788497;79;21060;-61
2022/10/02 01:46:41;;;;;;;22.60;10.23;;;;;;;19.97;100.00;70234.84;1785725;79;21266;-62
2022/10/02 01:49:19;;;;;;;19.62;10.53;;;;;;;20.00;100.00;64029.50;1779721;79;20993;-61
2022/10/02 01:52:21;;;;;;;26.20;11.12;;;;;;;20.01;100.00;58006.25;1774602;79;21272;-61
2022/10/02 01:55:18;;;;;;;23.00;12.40;;;;;;;20.02;100.00;51648.73;1768991;80;21060;-61
2022/10/02 01:58:20;;;;;;;27.42;12.30;;;;;;;20.02;100.00;44789.01;1757496;80;21402;-61
2022/10/02 02:01:27;;;;;;;28.73;12.98;;;;;;;20.06;100.00;44277.85;1769199;80;21103;-61
2022/10/02 02:04:23;;;;;;;25.02;15.75;;;;;;;20.06;100.00;42051.13;1770485;79;20992;-62
2022/10/02 02:07:27;;;;;;;29.10;18.02;;;;;;;20.04;100.00;41536.82;1769437;80;21021;-61
2022/10/02 02:10:05;;;;;;;33.02;17.75;;;;;;;20.04;100.00;44276.66;1758941;80;21139;-61
2022/10/02 02:12:46;;;;;;;29.57;18.27;;;;;;;20.02;100.00;51133.73;1766759;80;21555;-61
2022/10/02 02:15:28;;;;;;;31.35;18.50;;;;;;;20.02;100.00;60071.38;1772281;80;21230;-69
2022/10/02 02:17:59;;;;;;;26.50;16.90;;;;;;;20.00;100.00;76631.21;1750077;80;21006;-63
2022/10/02 02:20:31;;;;;;;25.20;15.85;;;;;;;19.99;100.00;101796.88;1772878;79;21021;-62
2022/10/02 02:23:02;;;;;;;25.35;15.40;;;;;;;19.98;100.00;132236.81;1770651;80;21024;-63
2022/10/02 02:25:31;;;;;;;23.32;14.25;;;;;;;19.96;100.00;152669.97;1768500;80;21025;-63
2022/10/02 02:28:00;;;;;;;19.70;12.20;;;;;;;19.90;100.00;152655.53;1752876;80;21730;-62
2022/10/02 02:30:30;;;;;;;17.52;12.40;;;;;;;19.85;100.00;152642.48;1772044;79;21442;-62
2022/10/02 02:33:04;;;;;;;20.57;10.72;;;;;;;19.78;100.00;152624.17;1746710;81;21010;-62
2022/10/02 02:35:34;;;;;;;18.40;11.33;;;;;;;19.70;100.00;152605.91;1765507;80;21084;-62
2022/10/02 02:38:07;;;;;;;17.15;10.98;;;;;;;19.63;100.00;152586.31;1766836;80;21057;-62
2022/10/02 02:40:37;;;;;;;21.68;11.22;;;;;;;19.54;100.00;152564.13;1751658;80;21224;-62
2022/10/02 02:43:09;;;;;;;21.07;10.15;;;;;;;19.46;100.00;152545.84;1775863;80;21526;-62
2022/10/02 02:45:51;;;;;;;18.25;10.40;;;;;;;19.39;100.00;152527.59;1769635;80;21028;-63
2022/10/02 02:48:22;;;;;;;15.50;8.25;;;;;;;19.31;100.00;152508.00;1774916;80;21034;-63
2022/10/02 02:50:53;;;;;;;14.93;8.38;;;;;;;19.24;100.00;152489.73;1766987;80;21052;-62
2022/10/02 02:53:36;;;;;;;15.03;7.25;;;;;;;19.21;100.00;152480.59;1772793;79;21206;-62
2022/10/02 02:56:05;;;;;;;15.08;7.17;;;;;;;19.14;100.00;152464.94;1797848;79;20993;-63
2022/10/02 02:58:53;;;;;;;10.43;6.42;;;;;;;19.07;100.00;152445.34;1780423;79;20996;-62
2022/10/02 03:01:20;;;;;;;14.10;6.75;;;;;;;18.98;100.00;152424.44;1787107;79;21033;-62
2022/10/02 03:03:47;;;;;;;13.03;6.22;;;;;;;18.88;100.00;152399.59;1793062;79;21501;-62
2022/10/02 03:06:32;;;;;;;17.65;7.05;;;;;;;18.82;100.00;152383.94;1775920;79;21074;-61
2022/10/02 03:08:59;;;;;;;11.12;6.70;;;;;;;18.75;100.00;152365.69;1807022;78;21032;-64
2022/10/02 03:11:58;;;;;;;13.50;6.55;;;;;;;18.69;100.00;152350.03;1795047;79;21069;-62
2022/10/02 03:14:51;;;;;;;12.10;6.95;;;;;;;18.61;100.00;152330.45;1790094;78;21099;-61
2022/10/02 03:17:49;;;;;;;15.13;6.15;;;;;;;18.55;100.00;152316.09;1784296;79;21115;-63
2022/10/02 03:20:30;;;;;;;12.23;5.80;;;;;;;18.50;100.00;152301.72;1789062;79;21500;-62
2022/10/02 03:23:14;;;;;;;11.00;5.25;;;;;;;18.47;100.00;152295.23;1802805;78;21052;-62
2022/10/02 03:26:07;;;;;;;12.13;5.15;;;;;;;18.43;100.00;152284.75;1778184;77;21037;-62
2022/10/02 03:28:42;;;;;;;9.48;4.95;;;;;;;18.38;100.00;152271.72;1767112;79;21037;-63
2022/10/02 03:31:09;;;;;;;9.58;4.92;;;;;;;18.31;100.00;152256.08;1805228;79;21035;-62
2022/10/02 03:33:38;;;;;;;8.78;4.92;;;;;;;18.29;100.00;152250.86;1776823;79;20975;-62
2022/10/02 03:36:04;;;;;;;10.88;5.10;;;;;;;18.28;100.00;152248.25;1802076;79;21016;-61
2022/10/02 03:38:32;;;;;;;9.13;4.40;;;;;;;18.22;100.00;152232.56;1795192;79;21132;-61
2022/10/02 03:40:59;;;;;;;12.80;4.65;;;;;;;18.18;100.00;152223.47;1761634;79;21336;-61
2022/10/02 03:43:28;;;;;;;12.28;4.65;;;;;;;18.17;100.00;152219.53;1797330;79;21020;-62
2022/10/02 03:45:55;;;;;;;9.08;4.05;;;;;;;18.13;100.00;152209.11;1782649;79;21137;-61
2022/10/02 03:48:22;;;;;;;7.47;3.77;;;;;;;18.12;100.00;152206.50;1791347;79;21111;-61
2022/10/02 03:50:52;;;;;;;8.85;3.83;;;;;;;18.12;100.00;152207.78;1761965;79;21071;-62
2022/10/02 03:53:22;;;;;;;10.93;3.47;;;;;;;18.10;100.00;152201.28;1770694;79;21071;-61
2022/10/02 03:56:14;;;;;;;8.58;3.47;;;;;;;18.08;100.00;152197.36;1744416;79;20973;-62
2022/10/02 03:58:45;;;;;;;5.70;3.22;;;;;;;18.07;100.00;152194.75;1770153;80;21549;-62
2022/10/02 04:01:29;;;;;;;8.93;2.75;;;;;;;18.03;100.00;152185.66;1761678;80;21046;-63
2022/10/02 04:04:19;;;;;;;8.98;2.75;;;;;;;18.01;100.00;152180.39;1749957;80;21008;-62
2022/10/02 04:06:50;;;;;;;6.10;2.60;;;;;;;17.98;100.00;152171.23;1733476;80;21114;-62
2022/10/02 04:09:28;;;;;;;11.57;2.85;;;;;;;17.96;100.00;152166.03;1757371;80;21232;-62
2022/10/02 04:12:08;;;;;;;4.83;2.62;;;;;;;17.94;100.00;152160.81;1754355;79;21326;-62
2022/10/02 04:14:58;;;;;;;5.12;2.62;;;;;;;17.95;100.00;152164.70;1765856;79;21004;-62
2022/10/02 04:17:42;;;;;;;5.55;2.70;;;;;;;17.93;100.00;152159.48;1770453;80;20922;-63
2022/10/02 04:20:30;;;;;;;6.78;2.60;;;;;;;17.90;100.00;152151.67;1771660;80;21073;-63
2022/10/02 04:23:07;;;;;;;8.18;3.30;;;;;;;17.89;100.00;152149.06;1762872;80;21147;-62
2022/10/02 04:25:38;;;;;;;7.90;3.05;;;;;;;17.87;100.00;152143.84;1775148;79;21270;-61
2022/10/02 04:28:09;;;;;;;5.87;2.52;;;;;;;17.85;100.00;152138.64;1767235;80;20973;-62
2022/10/02 04:30:37;;;;;;;6.30;2.50;;;;;;;17.85;100.00;152138.64;1766934;80;21076;-63
2022/10/02 04:33:19;;;;;;;5.08;2.75;;;;;;;17.82;100.00;152130.81;1760628;79;21078;-62
2022/10/02 04:35:51;;;;;;;5.25;2.55;;;;;;;17.82;100.00;152130.81;1755045;80;21026;-63
2022/10/02 04:38:57;;;;;;;5.15;2.40;;;;;;;17.84;100.00;152136.03;1767035;80;22630;-63
2022/10/02 04:42:01;;;;;;;4.22;2.47;;;;;;;17.87;100.00;152143.84;1766088;80;20946;-62
2022/10/02 04:45:04;;;;;;;6.62;2.50;;;;;;;17.89;100.00;152149.06;1755070;80;26418;-71
2022/10/02 04:47:55;;;;;;;8.68;2.50;;;;;;;17.91;100.00;152154.28;1776077;79;21004;-63
2022/10/02 04:50:43;;;;;;;4.28;2.80;;;;;;;17.93;100.00;152159.48;1762011;79;20983;-62
2022/10/02 04:53:30;;;;;;;7.15;2.30;;;;;;;17.93;100.00;152159.48;1775923;79;21757;-62
2022/10/02 04:56:18;;;;;;;4.03;2.42;;;;;;;17.96;100.00;152167.31;1746059;81;21535;-62
2022/10/02 04:59:05;;;;;;;7.72;2.55;;;;;;;18.00;100.00;152177.73;1765634;80;21010;-63
2022/10/02 05:02:14;;;;;;;3.77;2.12;;;;;;;18.06;100.00;152190.86;1790577;79;21051;-62
2022/10/02 05:04:46;;;;;;;6.33;2.40;;;;;;;18.11;100.00;152203.89;1795255;79;21439;-62
2022/10/02 05:07:46;;;;;;;6.25;2.10;;;;;;;18.16;100.00;152216.92;1791448;79;21914;-70
2022/10/02 05:10:24;;;;;;;3.47;2.10;;;;;;;18.21;100.00;152229.97;1795876;79;21470;-70
2022/10/02 05:13:21;;;;;;;6.42;2.35;;;;;;;18.25;100.00;152240.44;1795215;79;20936;-70
2022/10/02 05:16:10;;;;;;;7.60;2.37;;;;;;;18.30;100.00;152252.14;1793141;78;21250;-70
2022/10/02 05:19:09;;;;;;;8.18;2.62;;;;;;;18.33;100.00;152261.28;1807118;79;21005;-70
2022/10/02 05:22:10;;;;;;;4.75;2.25;;;;;;;18.35;100.00;152263.91;1775573;79;21759;-62
2022/10/02 05:25:02;;;;;;;7.55;2.45;;;;;;;18.40;100.00;152276.94;1785758;79;21111;-63
2022/10/02 05:28:03;;;;;;;6.17;2.47;;;;;;;18.43;100.00;152284.75;1781579;79;21450;-70
2022/10/02 05:30:38;;;;;;;8.60;2.22;;;;;;;18.47;100.00;152295.23;1785446;79;20990;-69
2022/10/02 05:33:31;;;;;;;6.65;2.35;;;;;;;18.50;100.00;152303.06;1783519;79;21057;-69
2022/10/02 05:36:08;;;;;;;9.65;2.10;;;;;;;18.55;100.00;152314.77;1784963;79;22215;-69
2022/10/02 05:39:21;;;;;;;5.83;1.77;;;;;;;18.59;100.00;152325.23;1800733;79;21084;-69
2022/10/02 05:42:02;;;;;;;8.70;2.60;;;;;;;18.64;100.00;152338.28;1768667;80;20990;-71
2022/10/02 05:44:38;;;;;;;12.07;2.12;;;;;;;18.69;100.00;152350.03;1770489;80;21045;-71
2022/10/02 05:47:38;;;;;;;9.65;2.10;;;;;;;18.70;100.00;152353.92;1732712;82;21107;-64
2022/10/02 05:50:25;;;;;;;6.62;1.80;;;;;;;18.72;100.00;152357.86;1778640;78;21092;-63
2022/10/02 05:53:30;;;;;;;9.43;1.70;;;;;;;18.75;100.00;152365.69;1777207;79;21012;-70
2022/10/02 05:56:15;;;;;;;8.38;1.80;;;;;;;18.82;100.00;152382.66;1798341;79;21028;-69
2022/10/02 05:58:55;;;;;;;9.60;2.37;;;;;;;18.90;100.00;152404.84;1767027;79;21032;-62
2022/10/02 06:01:29;;;;;;;14.63;2.42;;;;;;;18.99;100.00;152427.05;1789423;79;21080;-63
2022/10/02 06:04:29;;;;;;;8.65;2.12;;;;;;;19.03;100.00;152437.53;1781176;79;21463;-62
2022/10/02 06:07:00;;;;;;;8.00;1.70;;;;;;;19.05;100.00;152441.41;1785411;79;21009;-70
2022/10/02 06:09:37;;;;;;;7.92;1.87;;;;;;;19.06;100.00;152442.75;1764264;79;20994;-70
2022/10/02 06:12:19;;;;;;;11.60;2.37;;;;;;;19.01;100.00;152432.31;1778235;79;21273;-70
2022/10/02 06:14:50;;;;;;;7.45;1.90;;;;;;;19.00;100.00;152428.38;1780193;78;21287;-70
2022/10/02 06:17:24;;;;;;;7.80;1.90;;;;;;;18.97;100.00;152420.50;1781563;79;21107;-68
2022/10/02 06:19:56;;;;;;;6.40;1.60;;;;;;;18.95;100.00;152416.56;1786110;79;20992;-63
2022/10/02 06:22:31;;;;;;;8.30;1.40;;;;;;;18.94;100.00;152413.95;1783083;79;21028;-62
2022/10/02 06:25:20;;;;;;;3.85;1.60;;;;;;;18.95;100.00;152415.28;1759891;81;21053;-63
2022/10/02 06:28:10;;;;;;;4.33;1.60;;;;;;;18.94;100.00;152413.95;1735199;82;21046;-63
2022/10/02 06:30:40;;;;;;;5.17;1.60;;;;;;;18.93;100.00;152410.06;1692215;82;21882;-63
2022/10/02 06:33:25;;;;;;;6.62;1.80;;;;;;;18.90;100.00;152404.84;1735984;82;21122;-63
2022/10/02 06:36:22;;;;;;;7.10;1.50;;;;;;;18.90;100.00;152404.84;1729960;82;21027;-63
2022/10/02 06:39:16;;;;;;;3.15;1.50;;;;;;;18.88;100.00;152398.31;1732317;82;20951;-64
2022/10/02 06:42:35;;;;;;;3.47;1.72;;;;;;;18.86;100.00;152394.38;1738058;82;21038;-63
2022/10/02 06:45:39;;;;;;;3.80;1.92;;;;;;;18.84;100.00;152389.16;1725316;82;21254;-63
2022/10/02 06:48:39;;;;;;;2.77;1.60;;;;;;;18.84;100.00;152389.16;1717385;82;21153;-62
2022/10/02 06:51:29;;;;;;;8.43;1.90;;;;;;;18.81;100.00;152380.05;1711374;82;21589;-62
2022/10/02 06:54:30;;;;;;;3.33;1.60;;;;;;;18.74;100.00;152364.36;1731750;79;21136;-62
2022/10/02 06:57:24;;;;;;;7.95;2.05;;;;;;;18.61;100.00;152331.73;1678414;83;21044;-63
2022/10/02 07:00:13;;;;;;;6.28;2.30;;;;;;;18.53;100.00;152310.88;1771822;80;21446;-63
2022/10/02 07:03:21;;;;;;;6.42;2.20;;;;;;;18.46;100.00;152293.91;1766630;79;21045;-63
2022/10/02 07:06:11;;;;;;;4.62;2.55;;;;;;;18.41;100.00;152279.53;1759343;79;21060;-63
2022/10/02 07:08:55;;;;;;;8.20;2.77;;;;;;;18.39;100.00;152274.33;1751656;80;21045;-63
2022/10/02 07:11:33;;;;;;;5.63;2.23;;;;;;;18.36;100.00;152267.84;1763401;79;21033;-63
2022/10/02 07:14:29;;;;;;;5.85;2.60;;;;;;;18.38;100.00;152271.72;1766524;80;22275;-63
2022/10/02 07:17:38;;;;;;;5.42;2.52;;;;;;;18.38;100.00;152271.72;1760890;80;21381;-63
2022/10/02 07:20:23;;;;;;;6.75;2.40;;;;;;;18.38;100.00;152271.72;1752532;80;21033;-63
2022/10/02 07:23:32;;;;;;;4.62;2.37;;;;;;;18.37;100.00;152270.44;1767358;79;21044;-63
2022/10/02 07:26:20;;;;;;;4.70;2.40;;;;;;;18.36;100.00;152266.50;1770489;79;21016;-62
2022/10/02 07:28:55;;;;;;;5.30;2.30;;;;;;;18.38;100.00;152271.72;1767682;80;21198;-63
2022/10/02 07:31:40;;;;;;;9.40;2.60;;;;;;;18.36;100.00;152266.50;1760526;80;21050;-63
2022/10/02 07:34:38;;;;;;;4.40;2.60;;;;;;;18.35;100.00;152263.91;1760991;80;21030;-65
2022/10/02 07:37:20;;;;;;;6.08;3.58;;;;;;;18.38;100.00;152271.72;1758456;79;21121;-63
2022/10/02 07:40:24;;;;;;;9.23;3.30;;;;;;;18.41;100.00;152280.87;1765149;79;21015;-63
2022/10/02 07:43:00;;;;;;;11.10;5.08;;;;;;;18.43;100.00;152284.75;1763121;80;21245;-62
2022/10/02 07:45:36;;;;;;;8.18;5.15;;;;;;;18.44;100.00;152287.36;1768445;79;21001;-64
2022/10/02 07:48:32;;;;;;;8.58;5.67;;;;;;;18.41;100.00;152279.53;1757216;80;21017;-63
2022/10/02 07:54:29;;;;;;;9.73;6.17;;;;;;;18.38;100.00;152273.05;1759866;80;21026;-62
2022/10/02 07:57:18;;;;;;;15.25;6.33;;;;;;;18.36;100.00;152266.50;1708131;80;22753;-62
2022/10/02 07:59:44;;;;;;;9.23;5.87;;;;;;;18.34;100.00;152262.56;1724881;82;21585;-63
2022/10/02 08:02:34;;;;;;;8.50;6.00;;;;;;;18.31;100.00;152254.75;1736551;81;21114;-62
2022/10/02 08:05:05;;;;;;;9.18;6.33;;;;;;;18.31;100.00;152254.75;1790576;79;21036;-63
2022/10/02 08:07:32;;;;;;;9.10;5.97;;;;;;;18.29;100.00;152250.86;1776443;80;20993;-63
2022/10/02 08:10:05;;;;;;;9.73;6.20;;;;;;;18.26;100.00;152243.03;1776253;79;39062;-64
2022/10/02 08:12:59;;;;;;;9.38;6.00;;;;;;;18.26;100.00;152243.03;1796712;78;21011;-63
2022/10/02 08:15:28;;;;;;;11.33;6.40;;;;;;;18.27;100.00;152245.66;1791877;78;20997;-63
2022/10/02 08:17:58;;;;;;;9.00;6.12;;;;;;;18.26;100.00;152243.03;1781351;80;21037;-63
2022/10/02 08:20:38;;;;;;;12.63;5.87;;;;;;;18.26;100.00;152243.03;1797791;79;21075;-62
2022/10/02 08:23:19;;;;;;;7.15;5.30;;;;;;;18.26;100.00;152243.03;1798948;79;21300;-63
2022/10/02 08:26:02;;;;;;;9.63;5.45;;;;;;;18.27;100.00;152245.66;1772652;79;21031;-62
2022/10/02 08:28:53;;;;;;;9.43;5.83;;;;;;;18.26;100.00;152243.03;1792425;79;21009;-62
2022/10/02 08:31:21;;;;;;;7.37;5.50;;;;;;;18.25;100.00;152240.44;1799812;79;21099;-62
2022/10/02 08:33:47;;;;;;;6.28;5.33;;;;;;;18.24;100.00;152236.50;1793411;79;21012;-62
2022/10/02 08:36:55;;;;;;;7.25;5.17;;;;;;;18.23;100.00;152235.17;1791560;79;21088;-62
2022/10/02 08:40:07;;;;;;;7.62;5.45;;;;;;;18.26;100.00;152243.03;1771975;80;21486;-63
2022/10/02 08:42:45;;;;;;;13.65;5.30;;;;;;;18.32;100.00;152258.69;1773841;80;21046;-62
2022/10/02 08:46:02;;;;;;;10.20;6.05;;;;;;;18.36;100.00;152267.84;1781299;79;21035;-62
2022/10/02 08:48:57;;;;;;;5.78;4.30;;;;;;;18.40;100.00;152278.27;1751882;80;21834;-62
2022/10/02 08:52:09;;;;;;;4.47;3.50;;;;;;;18.42;100.00;152283.47;1786842;79;20967;-63
2022/10/02 08:55:11;;;;;;;4.15;3.10;;;;;;;18.49;100.00;152299.12;1768884;79;21096;-63
2022/10/02 08:58:09;;;;;;;4.83;2.90;;;;;;;18.53;100.00;152310.88;1791147;79;21013;-63
2022/10/02 09:01:02;;;;;;;4.55;3.05;;;;;;;18.61;100.00;152331.73;1781007;78;20992;-62
2022/10/02 09:03:47;;;;;;;4.78;3.90;;;;;;;18.67;100.00;152344.77;1784850;79;21478;-62
2022/10/02 09:06:25;;;;;;;4.95;3.50;;;;;;;18.69;100.00;152350.03;1783184;79;22046;-61
2022/10/02 09:09:45;;;;;;;9.15;3.90;;;;;;;18.69;100.00;152350.03;1779673;80;21053;-61
2022/10/02 09:12:45;;;;;;;6.78;4.10;;;;;;;18.66;100.00;152342.16;1799949;79;21585;-68
2022/10/02 09:15:43;;;;;;;5.75;3.67;;;;;;;18.64;100.00;152338.28;1800817;79;21052;-69
2022/10/02 09:18:27;;;;;;;12.07;4.20;;;;;;;18.60;100.00;152327.84;1805400;79;21072;-69
2022/10/02 09:21:16;;;;;;;5.95;3.55;;;;;;;18.54;100.00;152313.48;1790892;79;21273;-69
2022/10/02 09:24:32;;;;;;;7.45;4.05;;;;;;;18.49;100.00;152300.44;1797044;78;21017;-70
2022/10/02 09:27:23;;;;;;;6.92;4.40;;;;;;;18.41;100.00;152279.53;1783259;78;20948;-69
2022/10/02 09:30:27;;;;;;;5.30;4.00;;;;;;;18.33;100.00;152261.28;1801551;77;21008;-70
2022/10/02 09:33:27;;;;;;;7.28;4.75;;;;;;;18.25;100.00;152240.44;1787929;79;20961;-68
2022/10/02 09:36:31;;;;;;;5.45;4.17;;;;;;;18.17;100.00;152219.53;1801609;79;22339;-70
2022/10/02 09:39:18;;;;;;;6.47;3.72;;;;;;;18.09;100.00;152198.69;1790242;79;21013;-69
2022/10/02 09:42:17;;;;;;;4.90;4.17;;;;;;;18.00;100.00;152177.73;1793284;79;21013;-62
2022/10/02 09:45:07;;;;;;;3.33;2.80;;;;;;;17.92;100.00;152155.59;1780644;80;21615;-63
2022/10/02 09:47:52;;;;;;;5.05;2.60;;;;;;;17.79;100.00;152124.28;1774259;79;20986;-61
2022/10/02 09:50:36;;;;;;;6.12;2.60;;;;;;;17.64;100.00;152086.47;1786681;79;21178;-69
2022/10/02 09:53:32;;;;;;;4.37;2.52;;;;;;;17.56;100.00;152066.91;1768009;80;20917;-69
2022/10/02 09:56:44;;;;;;;3.30;2.40;;;;;;;17.45;100.00;152039.52;1770553;80;21096;-70
2022/10/02 09:59:45;;;;;;;2.70;2.37;;;;;;;17.39;100.00;152023.89;1781008;80;21523;-70
2022/10/02 10:02:53;;;;;;;4.78;2.40;;;;;;;17.37;100.00;152018.67;1776497;80;21087;-69
2022/10/02 10:05:38;;;;;;;4.95;2.40;;;;;;;17.31;100.00;152004.31;1773816;80;21617;-70
2022/10/02 10:08:34;;;;;;;4.55;2.50;;;;;;;17.32;100.00;152005.59;1770031;80;21087;-71
2022/10/02 10:11:21;;;;;;;5.15;1.95;;;;;;;17.34;100.00;152010.81;1772079;79;21046;-70
2022/10/02 10:14:28;;;;;;;2.47;2.15;;;;;;;17.39;100.00;152023.89;1702095;81;21115;-70
2022/10/02 10:17:38;;;;;;;2.70;1.95;;;;;;;17.46;100.00;152042.12;1733390;81;21188;-72
2022/10/02 10:20:53;;;;;;;4.25;2.00;;;;;;;17.55;100.00;152064.30;1689517;82;21859;-71
2022/10/02 10:23:54;;;;;;;2.08;1.87;;;;;;;17.65;100.00;152089.06;1710075;82;21021;-72
2022/10/02 10:26:55;;;;;;;4.60;1.65;;;;;;;17.78;97.18;152120.34;1704297;82;21494;-71
2022/10/02 10:29:39;;;;;;;1.80;1.70;;;;;;;17.89;94.37;152149.06;1740953;82;21042;-72
2022/10/02 10:32:35;;;;;;;1.70;1.60;;;;;;;17.99;91.63;152173.84;1769279;80;21022;-71
2022/10/02 10:35:34;;;;;;;2.50;1.60;;;;;;;18.08;90.13;152197.36;1737093;80;21720;-70
2022/10/02 10:38:31;;;;;;;3.92;1.30;;;;;;;18.15;85.26;152214.31;1770871;80;21044;-72
2022/10/02 10:41:34;;;;;;;1.62;1.20;;;;;;;18.16;79.63;152216.92;1776761;79;21072;-71
2022/10/02 10:44:42;;;;;;;3.45;1.40;;;;;;;18.15;74.57;152214.31;1772404;79;21009;-71
2022/10/02 10:47:42;;;;;;;4.28;1.47;;;;;;;18.18;75.55;152222.14;1768350;80;21002;-71
2022/10/02 10:50:45;;;;;;;2.17;1.47;;;;;;;18.25;76.41;152240.44;1709778;82;21288;-73
2022/10/02 10:53:42;;;;;;;4.75;1.50;;;;;;;18.31;76.73;152256.08;1720119;81;21100;-72
2022/10/02 10:56:24;;;;;;;4.03;1.70;;;;;;;18.35;75.70;152263.91;1729494;80;21100;-73
2022/10/02 10:59:18;;;;;;;4.00;1.70;;;;;;;18.38;75.68;152273.05;1745589;80;21578;-71
2022/10/02 11:02:02;;;;;;;2.85;1.85;;;;;;;18.40;75.61;152276.94;1731057;80;20989;-71
2022/10/02 11:05:14;;;;;;;2.10;1.57;;;;;;;18.39;74.82;152274.33;1753331;80;21256;-72
2022/10/02 11:07:59;;;;;;;3.02;1.57;;;;;;;18.32;74.28;152257.36;1756328;80;21392;-71
2022/10/02 11:11:05;;;;;;;7.08;1.90;;;;;;;18.25;74.47;152240.44;1757052;79;21505;-71
2022/10/02 11:13:43;;;;;;;1.70;1.52;;;;;;;18.21;75.04;152228.69;1750769;80;21046;-71
2022/10/02 11:16:39;;;;;;;1.98;1.77;;;;;;;18.23;74.49;152233.89;1752822;80;21006;-73
2022/10/02 11:19:25;;;;;;;2.65;1.87;;;;;;;18.30;74.57;152252.14;1644463;85;21875;-72
2022/10/02 11:22:24;;;;;;;2.27;2.00;;;;;;;18.39;73.76;152274.33;1749444;80;21013;-73
2022/10/02 11:25:31;;;;;;;3.87;2.00;;;;;;;18.41;72.29;152280.87;1749334;79;21088;-72
2022/10/02 11:28:20;;;;;;;8.30;2.10;;;;;;;18.43;69.82;152284.75;1758877;80;21041;-73
2022/10/02 11:31:01;;;;;;;2.08;1.87;;;;;;;18.38;69.87;152271.72;1707465;80;21004;-72
2022/10/02 11:33:56;;;;;;;5.28;2.02;;;;;;;18.38;70.64;152271.72;1747068;80;21480;-73
2022/10/02 11:36:42;;;;;;;2.25;2.00;;;;;;;18.44;71.35;152287.36;1743275;80;21023;-73
2022/10/02 11:39:35;;;;;;;3.90;2.20;;;;;;;18.49;70.87;152300.44;1747737;80;21585;-74
2022/10/02 11:42:25;;;;;;;3.90;2.25;;;;;;;18.54;70.25;152313.48;1755070;80;20997;-73
2022/10/02 11:45:22;;;;;;;5.30;2.30;;;;;;;18.59;70.84;152326.52;1737369;80;21044;-73
2022/10/02 11:48:17;;;;;;;4.83;2.42;;;;;;;18.64;71.08;152338.28;1750013;80;21242;-61
2022/10/02 11:51:08;;;;;;;5.20;2.70;;;;;;;18.68;70.50;152347.38;1744076;80;21058;-61
2022/10/02 11:54:05;;;;;;;4.45;2.30;;;;;;;18.58;69.05;152322.63;1755711;80;20971;-61
2022/10/02 11:57:04;;;;;;;3.15;2.30;;;;;;;18.42;68.78;152282.16;1746623;81;22160;-73
2022/10/02 11:59:44;;;;;;;6.70;2.58;;;;;;;18.33;69.21;152259.97;1771279;80;20937;-72
2022/10/02 12:02:25;;;;;;;3.50;2.52;;;;;;;18.25;68.54;152240.44;1753371;79;21293;-74
2022/10/02 12:05:34;;;;;;;4.62;2.60;;;;;;;18.16;68.33;152216.92;1755681;79;21096;-61
2022/10/02 12:08:37;;;;;;;7.75;2.60;;;;;;;18.03;67.80;152185.66;1774253;80;21032;-61
2022/10/02 12:11:31;;;;;;;7.40;2.65;;;;;;;17.91;67.62;152154.28;1755008;80;21060;-61
2022/10/02 12:14:17;;;;;;;6.05;2.62;;;;;;;17.88;64.80;152146.45;1771348;80;21032;-62
2022/10/02 12:17:04;;;;;;;5.10;2.15;;;;;;;17.85;63.84;152138.64;1773446;79;21228;-62
2022/10/02 12:26:57;;;;;;;6.72;2.98;;;;;;;17.79;64.13;152124.28;1773751;80;21037;-61
2022/10/02 12:28:28;;;;;;;6.33;2.40;;;;;;;17.64;65.99;152086.47;1683064;83;21540;-61
2022/10/02 12:31:20;;;;;;;3.47;2.25;;;;;;;17.60;65.31;152076.05;1749635;80;22155;-60
2022/10/02 12:34:02;;;;;;;3.27;2.27;;;;;;;17.52;64.59;152055.16;1766516;80;21076;-60
2022/10/02 12:36:57;;;;;;;3.77;2.20;;;;;;;17.39;64.45;152022.56;1757661;80;20978;-60
2022/10/02 12:39:53;;;;;;;7.62;2.30;;;;;;;17.24;64.75;151986.08;1770263;79;21103;-62
2022/10/02 12:42:54;;;;;;;5.00;2.17;;;;;;;17.16;65.48;151966.52;1769066;81;21118;-61
2022/10/02 12:45:57;;;;;;;7.58;2.15;;;;;;;17.20;64.71;151975.61;1768885;81;21217;-61
2022/10/02 12:48:50;;;;;;;7.08;2.40;;;;;;;17.22;65.08;151980.81;1757745;81;21064;-62
2022/10/02 12:51:40;;;;;;;3.12;2.20;;;;;;;17.26;66.01;151989.97;1752413;78;21130;-61
2022/10/02 12:54:57;;;;;;;3.70;2.50;;;;;;;17.27;64.97;151992.56;1770461;80;20999;-62
2022/10/02 12:58:09;;;;;;;4.37;2.30;;;;;;;17.20;64.72;151974.33;1776094;80;21016;-62